Terminal Aerodrome Forecast
Issued by NWS Albany, NY

Home | Current Version | Previous Version | Text Only | Print | Product List | Glossary On
Versions: 1 2 3 4 5 6 7 8 9 10 11 12 13 14 15 16 17 18 19 20 21 22 23 24 25
000
FTUS41 KALY 261100 RRA
TAFALB
TAF
KALB 261147Z 2612/2712 30010KT P6SM OVC035
      TEMPO 2612/2615 BKN025 OVC035
     FM261500 26010G18KT P6SM BKN035 BKN250
     FM262000 23006KT P6SM SCT040 SCT250
     FM270300 26005KT P6SM SCT050 SCT250
     FM270900 27005KT P6SM BKN050=

USA.gov is the U.S. government's official web portal to all federal, state and local government web resources and services.